createdAt,value
2023-07-06T00:00:39.145Z,15.06
2023-07-06T00:03:06.080Z,15.07
2023-07-06T00:05:32.832Z,15.06
2023-07-06T00:08:01.306Z,15.06
2023-07-06T00:10:27.950Z,15.06
2023-07-06T00:12:58.466Z,15.05
2023-07-06T00:15:24.929Z,15.07
2023-07-06T00:17:51.436Z,15.08
2023-07-06T00:20:18.997Z,15.04
2023-07-06T00:22:46.090Z,15.03
2023-07-06T00:25:13.548Z,15.02
2023-07-06T00:27:41.174Z,15.04
2023-07-06T00:30:16.759Z,15.06
2023-07-06T00:32:44.389Z,15.06
2023-07-06T00:35:11.478Z,15.05
2023-07-06T00:37:40.958Z,15.05
2023-07-06T00:40:10.599Z,15.05
2023-07-06T00:42:43.174Z,15.04
2023-07-06T00:45:12.563Z,15.05
2023-07-06T00:47:49.704Z,15.07
2023-07-06T00:50:19.067Z,15.07
2023-07-06T00:52:50.106Z,15.06
2023-07-06T00:55:19.720Z,15.06
2023-07-06T00:57:54.337Z,15.08
2023-07-06T01:00:25.593Z,15.06
2023-07-06T01:02:58.069Z,15.05
2023-07-06T01:05:27.589Z,15.06
2023-07-06T01:07:56.318Z,15.06
2023-07-06T01:10:23.321Z,15.03
2023-07-06T01:12:50.187Z,15.01
2023-07-06T01:15:17.811Z,15.03
2023-07-06T01:17:58.177Z,15.05
2023-07-06T01:20:36.046Z,15.06
2023-07-06T01:23:41.959Z,15.04
2023-07-06T01:26:44.674Z,15.02
2023-07-06T01:29:22.389Z,15.01
2023-07-06T01:32:05.127Z,15.01
2023-07-06T01:34:37.506Z,15.03
2023-07-06T01:37:17.401Z,15.05
2023-07-06T01:39:44.042Z,15.05
2023-07-06T01:42:13.644Z,15.08
2023-07-06T01:44:49.156Z,15.11
2023-07-06T01:47:20.265Z,15.13
2023-07-06T01:49:50.380Z,15.17
2023-07-06T01:52:39.687Z,15.18
2023-07-06T01:55:22.982Z,15.20
2023-07-06T01:58:07.280Z,15.23
2023-07-06T02:00:39.113Z,15.26
2023-07-06T02:03:09.734Z,15.29
2023-07-06T02:05:40.512Z,15.22
2023-07-06T02:08:12.003Z,15.26
2023-07-06T02:10:38.640Z,15.27
2023-07-06T02:13:05.362Z,15.31
2023-07-06T02:15:32.759Z,15.31
2023-07-06T02:17:59.433Z,15.33
2023-07-06T02:20:26.201Z,15.36
2023-07-06T02:22:53.427Z,15.35
2023-07-06T02:25:21.603Z,15.35
2023-07-06T02:27:48.887Z,15.33
2023-07-06T02:30:15.665Z,15.30
2023-07-06T02:32:42.494Z,15.31
2023-07-06T02:35:13.196Z,15.28
2023-07-06T02:37:40.168Z,15.30
2023-07-06T02:40:12.194Z,15.29
2023-07-06T02:42:42.743Z,15.27
2023-07-06T02:45:10.877Z,15.27
2023-07-06T02:47:37.978Z,15.27
2023-07-06T02:50:12.162Z,15.23
2023-07-06T02:52:40.577Z,15.25
2023-07-06T02:55:10.383Z,15.17
2023-07-06T02:57:40.636Z,15.23
2023-07-06T03:00:15.658Z,15.26
2023-07-06T03:02:43.592Z,15.26
2023-07-06T03:05:11.503Z,15.25
2023-07-06T03:07:39.209Z,15.23
2023-07-06T03:10:08.783Z,15.23
2023-07-06T03:12:38.406Z,15.23
2023-07-06T03:15:14.187Z,15.22
2023-07-06T03:17:41.704Z,15.21
2023-07-06T03:20:15.847Z,15.21
2023-07-06T03:22:47.239Z,15.20
2023-07-06T03:25:15.364Z,15.20
2023-07-06T03:27:42.781Z,15.18
2023-07-06T03:30:11.251Z,15.20
2023-07-06T03:32:39.112Z,15.18
2023-07-06T03:35:06.893Z,15.19
2023-07-06T03:37:33.681Z,15.20
2023-07-06T03:40:00.170Z,15.19
2023-07-06T03:42:27.174Z,15.18
2023-07-06T03:44:57.002Z,15.18
2023-07-06T03:47:24.815Z,15.18
2023-07-06T03:49:53.307Z,15.17
2023-07-06T03:52:22.701Z,15.17
2023-07-06T03:54:49.985Z,15.18
2023-07-06T03:57:17.520Z,15.20
2023-07-06T03:59:44.529Z,15.19
2023-07-06T04:02:11.265Z,15.19
2023-07-06T04:04:37.839Z,15.18
2023-07-06T04:07:05.210Z,15.18
2023-07-06T04:09:31.876Z,15.18
2023-07-06T04:11:58.433Z,15.18
2023-07-06T04:14:26.321Z,15.20
2023-07-06T04:16:55.611Z,15.21
2023-07-06T04:19:23.152Z,15.22
2023-07-06T04:21:49.788Z,15.27
2023-07-06T04:24:17.338Z,15.27
2023-07-06T04:26:46.406Z,15.25
2023-07-06T04:29:13.279Z,15.26
2023-07-06T04:31:43.632Z,15.27
2023-07-06T04:34:10.329Z,15.29
2023-07-06T04:36:37.111Z,15.32
2023-07-06T04:39:08.193Z,15.33
2023-07-06T04:41:36.624Z,15.32
2023-07-06T04:44:03.102Z,15.35
2023-07-06T04:46:29.661Z,15.36
2023-07-06T04:48:56.385Z,15.41
2023-07-06T04:51:23.528Z,15.44
2023-07-06T04:53:50.333Z,15.47
2023-07-06T04:56:17.054Z,15.48
2023-07-06T04:58:46.169Z,15.49
2023-07-06T05:01:12.798Z,15.54
2023-07-06T05:03:40.000Z,15.57
2023-07-06T05:06:13.605Z,15.61
2023-07-06T05:08:44.783Z,15.66
2023-07-06T05:11:11.962Z,15.71
2023-07-06T05:13:38.494Z,15.75
2023-07-06T05:16:05.673Z,15.81
2023-07-06T05:18:32.633Z,15.88
2023-07-06T05:20:59.515Z,15.92
2023-07-06T05:23:30.556Z,15.99
2023-07-06T05:26:01.634Z,16.03
2023-07-06T05:28:30.401Z,16.10
2023-07-06T05:30:57.303Z,16.17
2023-07-06T05:33:23.958Z,16.23
2023-07-06T05:35:52.785Z,16.29
2023-07-06T05:38:20.120Z,16.35
2023-07-06T05:40:46.772Z,16.38
2023-07-06T05:43:16.358Z,16.41
2023-07-06T05:45:43.168Z,16.45
2023-07-06T05:48:09.975Z,16.53
2023-07-06T05:50:36.652Z,16.59
2023-07-06T05:53:03.526Z,16.62
2023-07-06T05:55:31.761Z,16.67
2023-07-06T05:57:58.679Z,16.69
2023-07-06T06:00:26.728Z,16.73
2023-07-06T06:02:54.831Z,16.78
2023-07-06T06:05:21.396Z,16.88
2023-07-06T06:07:48.268Z,16.96
2023-07-06T06:10:15.864Z,17.02
2023-07-06T06:12:44.388Z,17.10
2023-07-06T06:15:11.460Z,17.27
2023-07-06T06:17:39.165Z,17.35
2023-07-06T06:20:09.814Z,17.44
2023-07-06T06:22:39.238Z,17.51
2023-07-06T06:25:06.878Z,17.54
2023-07-06T06:27:33.603Z,17.67
2023-07-06T06:30:00.179Z,17.95
2023-07-06T06:32:27.311Z,18.21
2023-07-06T06:35:01.961Z,18.30
2023-07-06T06:37:28.558Z,18.28
2023-07-06T06:39:55.388Z,18.30
2023-07-06T06:42:22.526Z,18.32
2023-07-06T06:44:50.631Z,18.55
2023-07-06T06:47:17.344Z,18.80
2023-07-06T06:49:43.814Z,19.04
2023-07-06T06:52:11.470Z,19.28
2023-07-06T06:54:38.079Z,19.47
2023-07-06T06:57:05.499Z,19.60
2023-07-06T06:59:34.161Z,19.55
2023-07-06T07:02:03.125Z,19.50
2023-07-06T07:04:30.860Z,19.50
2023-07-06T07:06:58.576Z,19.44
2023-07-06T07:09:25.290Z,19.48
2023-07-06T07:11:51.841Z,19.54
2023-07-06T07:14:18.927Z,19.59
2023-07-06T07:16:46.073Z,19.71
2023-07-06T07:19:13.303Z,19.73
2023-07-06T07:21:40.189Z,19.87
2023-07-06T07:24:06.867Z,19.96
2023-07-06T07:26:33.395Z,20.03
2023-07-06T07:29:00.014Z,20.09
2023-07-06T07:31:28.044Z,20.13
2023-07-06T07:33:55.380Z,20.23
2023-07-06T07:36:23.231Z,20.39
2023-07-06T07:38:51.476Z,20.50
2023-07-06T07:41:20.497Z,20.81
2023-07-06T07:43:49.530Z,21.11
2023-07-06T07:46:18.943Z,21.39
2023-07-06T07:48:47.464Z,21.73
2023-07-06T07:51:20.407Z,21.90
2023-07-06T07:53:47.071Z,21.97
2023-07-06T07:56:17.013Z,21.86
2023-07-06T07:58:49.176Z,21.90
2023-07-06T08:01:19.428Z,22.00
2023-07-06T08:03:48.871Z,22.03
2023-07-06T08:06:18.122Z,22.02
2023-07-06T08:08:45.205Z,21.91
2023-07-06T08:11:23.481Z,21.81
2023-07-06T08:13:52.424Z,21.75
2023-07-06T08:16:21.562Z,22.06
2023-07-06T08:18:51.416Z,22.25
2023-07-06T08:21:44.422Z,22.46
2023-07-06T08:24:12.777Z,22.57
2023-07-06T08:26:39.263Z,22.58
2023-07-06T08:29:05.816Z,22.49
2023-07-06T08:31:32.471Z,22.38
2023-07-06T08:34:01.889Z,22.22
2023-07-06T08:36:28.653Z,22.20
2023-07-06T08:38:59.540Z,22.16
2023-07-06T08:41:34.692Z,22.14
2023-07-06T08:44:06.415Z,22.24
2023-07-06T08:46:37.851Z,22.48
2023-07-06T08:49:19.068Z,22.74
2023-07-06T08:51:48.754Z,22.99
2023-07-06T08:54:22.340Z,23.11
2023-07-06T08:56:50.542Z,23.10
2023-07-06T08:59:31.021Z,23.02
2023-07-06T09:01:59.213Z,22.93
2023-07-06T09:04:29.859Z,22.97
2023-07-06T09:07:00.849Z,23.15
2023-07-06T09:09:29.371Z,23.22
2023-07-06T09:11:58.575Z,23.19
2023-07-06T09:14:29.776Z,23.20
2023-07-06T09:16:57.650Z,23.23
2023-07-06T09:19:26.143Z,23.13
2023-07-06T09:21:58.993Z,23.09
2023-07-06T09:24:28.804Z,23.28
2023-07-06T09:26:59.978Z,23.52
2023-07-06T09:29:32.948Z,23.59
2023-07-06T09:32:11.849Z,23.60
2023-07-06T09:34:40.285Z,23.67
2023-07-06T09:37:07.205Z,23.70
2023-07-06T09:39:34.094Z,23.70
2023-07-06T09:42:02.392Z,23.69
2023-07-06T09:44:31.648Z,23.61
2023-07-06T09:47:00.903Z,23.43
2023-07-06T09:49:33.758Z,23.17
2023-07-06T09:52:09.802Z,22.89
2023-07-06T09:55:01.386Z,22.71
2023-07-06T09:57:33.675Z,22.55
2023-07-06T10:00:03.542Z,22.45
2023-07-06T10:02:52.158Z,22.29
2023-07-06T10:05:32.563Z,22.22
2023-07-06T10:08:07.245Z,22.25
2023-07-06T10:10:37.030Z,22.38
2023-07-06T10:13:25.482Z,22.68
2023-07-06T10:16:01.239Z,23.02
2023-07-06T10:18:40.527Z,23.24
2023-07-06T10:21:21.939Z,23.35
2023-07-06T10:24:08.837Z,23.39
2023-07-06T10:26:38.277Z,23.37
2023-07-06T10:29:06.530Z,23.44
2023-07-06T10:31:58.450Z,23.48
2023-07-06T10:34:39.718Z,23.39
2023-07-06T10:37:08.190Z,23.31
2023-07-06T10:39:43.466Z,23.06
2023-07-06T10:42:33.211Z,22.68
2023-07-06T10:45:03.880Z,22.34
2023-07-06T10:47:34.722Z,22.16
2023-07-06T10:50:27.451Z,22.07
2023-07-06T10:53:12.015Z,21.80
2023-07-06T10:55:39.811Z,21.70
2023-07-06T10:58:24.197Z,21.63
2023-07-06T11:00:51.912Z,21.60
2023-07-06T11:03:24.194Z,21.65
2023-07-06T11:06:16.129Z,21.84
2023-07-06T11:09:03.507Z,22.06
2023-07-06T11:11:34.104Z,22.28
2023-07-06T11:14:40.186Z,22.66
2023-07-06T11:17:51.384Z,23.05
2023-07-06T11:20:27.501Z,23.52
2023-07-06T11:23:02.030Z,23.88
2023-07-06T11:25:31.294Z,24.17
2023-07-06T11:28:10.957Z,24.42
2023-07-06T11:31:02.823Z,24.66
2023-07-06T11:33:56.844Z,24.80
2023-07-06T11:36:38.778Z,25.01
2023-07-06T11:39:32.384Z,25.16
2023-07-06T11:42:08.527Z,25.15
2023-07-06T11:44:49.609Z,25.06
2023-07-06T11:47:36.504Z,24.98
2023-07-06T11:50:12.665Z,24.96
2023-07-06T11:52:45.502Z,24.93
2023-07-06T11:55:33.136Z,24.84
2023-07-06T11:58:29.702Z,24.80
2023-07-06T12:01:02.208Z,24.83
2023-07-06T12:03:30.782Z,24.86
2023-07-06T12:06:00.200Z,24.83
2023-07-06T12:08:38.020Z,24.75
2023-07-06T12:11:08.774Z,24.71
2023-07-06T12:13:38.496Z,24.71
2023-07-06T12:16:31.781Z,24.74
2023-07-06T12:19:04.818Z,24.84
2023-07-06T12:21:40.093Z,24.91
2023-07-06T12:24:13.374Z,24.94
2023-07-06T12:26:46.160Z,25.14
2023-07-06T12:29:17.073Z,25.34
2023-07-06T12:31:48.162Z,25.55
2023-07-06T12:34:19.403Z,25.67
2023-07-06T12:36:50.794Z,25.72
2023-07-06T12:39:19.898Z,25.70
2023-07-06T12:41:48.097Z,25.66
2023-07-06T12:44:18.615Z,25.78
2023-07-06T12:46:53.867Z,25.85
2023-07-06T12:49:26.047Z,25.91
2023-07-06T12:51:56.800Z,26.02
2023-07-06T12:54:28.714Z,26.11
2023-07-06T12:57:05.013Z,26.24
2023-07-06T12:59:34.002Z,26.26
2023-07-06T13:02:17.605Z,26.25
2023-07-06T13:04:46.962Z,26.36
2023-07-06T13:07:16.742Z,26.38
2023-07-06T13:09:43.706Z,26.38
2023-07-06T13:12:20.079Z,26.43
2023-07-06T13:14:48.175Z,26.48
2023-07-06T13:17:24.088Z,26.51
2023-07-06T13:19:52.153Z,26.55
2023-07-06T13:22:18.797Z,26.55
2023-07-06T13:24:47.617Z,26.60
2023-07-06T13:27:16.656Z,26.61
2023-07-06T13:29:46.296Z,26.58
2023-07-06T13:32:18.785Z,26.56
2023-07-06T13:34:50.865Z,26.52
2023-07-06T13:37:25.597Z,26.50
2023-07-06T13:39:52.809Z,26.49
2023-07-06T13:42:22.858Z,26.45
2023-07-06T13:44:52.615Z,26.45
2023-07-06T13:47:20.526Z,26.45
2023-07-06T13:49:53.618Z,26.31
2023-07-06T13:52:21.462Z,26.21
2023-07-06T13:54:48.221Z,26.19
2023-07-06T13:57:14.747Z,26.10
2023-07-06T13:59:41.457Z,26.05
2023-07-06T14:02:14.104Z,25.98
2023-07-06T14:04:42.671Z,25.86
2023-07-06T14:07:12.875Z,25.83
2023-07-06T14:09:39.533Z,25.86
2023-07-06T14:12:08.470Z,25.90
2023-07-06T14:14:35.243Z,25.80
2023-07-06T14:17:02.046Z,25.75
2023-07-06T14:19:28.648Z,25.78
2023-07-06T14:21:55.364Z,25.67
2023-07-06T14:24:22.847Z,25.59
2023-07-06T14:26:52.979Z,25.59
2023-07-06T14:29:19.548Z,25.51
2023-07-06T14:31:51.316Z,25.48
2023-07-06T14:34:23.252Z,25.46
2023-07-06T14:36:50.076Z,25.43
2023-07-06T14:39:19.306Z,25.32
2023-07-06T14:41:46.082Z,25.20
2023-07-06T14:44:12.797Z,25.12
2023-07-06T14:46:39.521Z,25.14
2023-07-06T14:49:06.635Z,25.20
2023-07-06T14:51:34.044Z,25.20
2023-07-06T14:54:02.723Z,25.09
2023-07-06T14:56:29.323Z,24.96
2023-07-06T14:58:58.379Z,24.93
2023-07-06T15:01:25.106Z,24.86
2023-07-06T15:03:51.741Z,24.76
2023-07-06T15:06:18.478Z,24.64
2023-07-06T15:08:45.078Z,24.67
2023-07-06T15:11:15.903Z,24.66
2023-07-06T15:13:43.026Z,24.68
2023-07-06T15:16:09.730Z,24.72
2023-07-06T15:18:36.359Z,24.78
2023-07-06T15:21:10.926Z,24.79
2023-07-06T15:23:38.857Z,24.81
2023-07-06T15:26:05.988Z,24.86
2023-07-06T15:28:32.642Z,24.90
2023-07-06T15:30:59.446Z,24.88
2023-07-06T15:33:26.041Z,24.87
2023-07-06T15:35:52.618Z,24.85
2023-07-06T15:38:19.187Z,24.87
2023-07-06T15:40:47.700Z,24.79
2023-07-06T15:43:15.328Z,24.77
2023-07-06T15:45:45.086Z,24.72
2023-07-06T15:48:12.298Z,24.72
2023-07-06T15:50:39.837Z,24.72
2023-07-06T15:53:08.045Z,24.72
2023-07-06T15:55:34.713Z,24.72
2023-07-06T15:58:02.442Z,24.70
2023-07-06T16:00:31.751Z,24.66
2023-07-06T16:03:01.840Z,24.60
2023-07-06T16:05:31.600Z,24.61
2023-07-06T16:08:00.994Z,24.67
2023-07-06T16:10:27.595Z,24.69
2023-07-06T16:12:54.355Z,24.70
2023-07-06T16:15:20.939Z,24.72
2023-07-06T16:17:47.827Z,24.70
2023-07-06T16:20:14.368Z,24.70
2023-07-06T16:22:40.848Z,24.72
2023-07-06T16:25:07.645Z,24.77
2023-07-06T16:27:34.145Z,24.78
2023-07-06T16:30:00.751Z,24.76
2023-07-06T16:32:27.482Z,24.67
2023-07-06T16:34:54.109Z,24.67
2023-07-06T16:37:20.682Z,24.68
2023-07-06T16:39:47.858Z,24.69
2023-07-06T16:42:14.773Z,24.74
2023-07-06T16:44:41.369Z,24.72
2023-07-06T16:47:07.956Z,24.74
2023-07-06T16:49:34.577Z,24.73
2023-07-06T16:52:01.645Z,24.70
2023-07-06T16:54:28.426Z,24.69
2023-07-06T16:56:55.008Z,24.68
2023-07-06T16:59:21.669Z,24.63
2023-07-06T17:01:52.065Z,24.56
2023-07-06T17:04:18.882Z,24.55
2023-07-06T17:06:45.466Z,24.51
2023-07-06T17:09:11.954Z,24.46
2023-07-06T17:11:41.491Z,24.44
2023-07-06T17:14:08.267Z,24.43
2023-07-06T17:16:35.067Z,24.40
2023-07-06T17:19:01.958Z,24.42
2023-07-06T17:21:28.820Z,24.43
2023-07-06T17:23:55.422Z,24.41
2023-07-06T17:26:22.056Z,24.36
2023-07-06T17:28:48.636Z,24.32
2023-07-06T17:31:17.207Z,24.27
2023-07-06T17:33:44.009Z,24.20
2023-07-06T17:36:12.112Z,24.19
2023-07-06T17:38:39.427Z,24.12
2023-07-06T17:41:08.256Z,24.10
2023-07-06T17:43:35.929Z,24.08
2023-07-06T17:46:03.376Z,24.05
2023-07-06T17:48:30.482Z,24.03
2023-07-06T17:51:07.981Z,23.97
2023-07-06T17:53:37.528Z,23.98
2023-07-06T17:56:04.733Z,23.92
2023-07-06T17:58:31.293Z,23.90
2023-07-06T18:00:58.114Z,23.88
2023-07-06T18:03:25.263Z,23.83
2023-07-06T18:05:52.548Z,23.79
2023-07-06T18:08:19.476Z,23.73
2023-07-06T18:10:47.311Z,23.71
2023-07-06T18:13:20.848Z,23.66
2023-07-06T18:15:49.096Z,23.60
2023-07-06T18:18:15.892Z,23.55
2023-07-06T18:20:43.989Z,23.45
2023-07-06T18:23:11.480Z,23.38
2023-07-06T18:25:45.207Z,23.31
2023-07-06T18:28:19.707Z,23.28
2023-07-06T18:30:46.410Z,23.22
2023-07-06T18:33:14.021Z,23.23
2023-07-06T18:35:40.936Z,23.19
2023-07-06T18:38:07.568Z,23.17
2023-07-06T18:40:34.175Z,23.15
2023-07-06T18:43:00.826Z,23.14
2023-07-06T18:45:40.478Z,23.10
2023-07-06T18:48:08.568Z,23.08
2023-07-06T18:50:36.656Z,23.03
2023-07-06T18:53:03.200Z,23.04
2023-07-06T18:55:29.674Z,23.07
2023-07-06T18:57:56.189Z,23.09
2023-07-06T19:00:22.864Z,23.11
2023-07-06T19:02:49.444Z,23.11
2023-07-06T19:05:16.070Z,23.08
2023-07-06T19:07:55.909Z,23.04
2023-07-06T19:10:28.726Z,23.01
2023-07-06T19:12:55.189Z,23.00
2023-07-06T19:15:21.615Z,22.97
2023-07-06T19:17:48.146Z,22.92
2023-07-06T19:20:14.600Z,22.88
2023-07-06T19:22:55.735Z,22.87
2023-07-06T19:25:23.028Z,22.82
2023-07-06T19:27:50.095Z,22.78
2023-07-06T19:30:17.056Z,22.72
2023-07-06T19:32:43.616Z,22.65
2023-07-06T19:35:10.375Z,22.62
2023-07-06T19:37:37.123Z,22.56
2023-07-06T19:40:05.848Z,22.51
2023-07-06T19:42:32.393Z,22.42
2023-07-06T19:44:58.876Z,22.31
2023-07-06T19:47:25.437Z,22.25
2023-07-06T19:49:51.921Z,22.20
2023-07-06T19:52:19.475Z,22.16
2023-07-06T19:54:46.034Z,22.10
2023-07-06T19:57:14.303Z,22.00
2023-07-06T19:59:40.858Z,21.91
2023-07-06T20:02:12.823Z,21.84
2023-07-06T20:04:41.720Z,21.75
2023-07-06T20:07:13.718Z,21.67
2023-07-06T20:09:42.691Z,21.59
2023-07-06T20:12:10.082Z,21.48
2023-07-06T20:14:36.957Z,21.41
2023-07-06T20:17:04.262Z,21.34
2023-07-06T20:19:30.924Z,21.26
2023-07-06T20:21:57.450Z,21.21
2023-07-06T20:24:24.419Z,21.19
2023-07-06T20:26:52.156Z,21.12
2023-07-06T20:29:18.661Z,21.00
2023-07-06T20:31:45.196Z,20.82
2023-07-06T20:34:11.727Z,20.64
2023-07-06T20:36:38.378Z,20.49
2023-07-06T20:39:06.440Z,20.41
2023-07-06T20:41:32.892Z,20.35
2023-07-06T20:43:59.451Z,20.31
2023-07-06T20:46:25.934Z,20.28
2023-07-06T20:48:52.492Z,20.21
2023-07-06T20:51:19.109Z,20.19
2023-07-06T20:53:45.544Z,20.18
2023-07-06T20:56:12.199Z,20.13
2023-07-06T20:58:40.752Z,20.10
2023-07-06T21:01:09.293Z,20.06
2023-07-06T21:03:35.982Z,20.02
2023-07-06T21:06:04.109Z,19.96
2023-07-06T21:08:31.044Z,19.92
2023-07-06T21:10:57.811Z,19.87
2023-07-06T21:13:24.685Z,19.84
2023-07-06T21:15:52.161Z,19.81
2023-07-06T21:18:19.537Z,19.78
2023-07-06T21:20:46.533Z,19.73
2023-07-06T21:23:13.063Z,19.69
2023-07-06T21:25:40.810Z,19.62
2023-07-06T21:28:07.576Z,19.55
2023-07-06T21:30:34.161Z,19.49
2023-07-06T21:33:00.678Z,19.42
2023-07-06T21:35:27.241Z,19.32
2023-07-06T21:37:53.954Z,19.27
2023-07-06T21:40:20.500Z,19.21
2023-07-06T21:42:47.050Z,19.17
2023-07-06T21:45:13.571Z,19.14
2023-07-06T21:47:40.199Z,19.11
2023-07-06T21:50:07.168Z,19.10
2023-07-06T21:52:33.596Z,19.07
2023-07-06T21:55:00.189Z,19.02
2023-07-06T21:57:26.862Z,18.98
2023-07-06T21:59:53.381Z,18.95
2023-07-06T22:02:20.050Z,18.88
2023-07-06T22:04:46.572Z,18.83
2023-07-06T22:07:13.039Z,18.79
2023-07-06T22:09:42.387Z,18.76
2023-07-06T22:12:09.435Z,18.70
2023-07-06T22:14:40.218Z,18.65
2023-07-06T22:17:07.143Z,18.59
2023-07-06T22:19:33.613Z,18.55
2023-07-06T22:22:00.226Z,18.49
2023-07-06T22:24:28.759Z,18.46
2023-07-06T22:26:55.268Z,18.44
2023-07-06T22:29:21.729Z,18.40
2023-07-06T22:31:48.379Z,18.39
2023-07-06T22:34:14.923Z,18.38
2023-07-06T22:36:41.657Z,18.37
2023-07-06T22:39:09.157Z,18.36
2023-07-06T22:41:35.654Z,18.34
2023-07-06T22:44:02.548Z,18.33
2023-07-06T22:46:29.192Z,18.32
2023-07-06T22:49:02.230Z,18.31
2023-07-06T22:51:30.353Z,18.32
2023-07-06T22:53:56.962Z,18.32
2023-07-06T22:56:23.605Z,18.28
2023-07-06T22:58:50.146Z,18.25
2023-07-06T23:01:22.471Z,18.19
2023-07-06T23:03:49.633Z,18.10
2023-07-06T23:06:19.365Z,18.06
2023-07-06T23:08:45.884Z,18.00
2023-07-06T23:11:12.588Z,17.94
2023-07-06T23:13:39.609Z,17.89
2023-07-06T23:16:06.490Z,17.85
2023-07-06T23:18:33.665Z,17.79
2023-07-06T23:21:00.661Z,17.73
2023-07-06T23:23:29.710Z,17.70
2023-07-06T23:25:56.357Z,17.67
2023-07-06T23:28:23.274Z,17.55
2023-07-06T23:30:53.866Z,17.61
2023-07-06T23:33:21.160Z,17.57
2023-07-06T23:35:47.776Z,17.53
2023-07-06T23:38:15.295Z,17.51
2023-07-06T23:40:44.940Z,17.50
2023-07-06T23:43:12.018Z,17.47
2023-07-06T23:45:38.636Z,17.47
2023-07-06T23:48:06.068Z,17.44
2023-07-06T23:50:33.312Z,17.39
2023-07-06T23:53:00.226Z,17.34
2023-07-06T23:55:26.800Z,17.29
2023-07-06T23:57:53.760Z,17.26
